createdAt,value
2017-05-17T00:00:04.404Z,14.50
2017-05-17T00:02:35.977Z,14.60
2017-05-17T00:05:05.521Z,14.60
2017-05-17T00:07:40.039Z,14.50
2017-05-17T00:10:11.564Z,14.40
2017-05-17T00:12:42.079Z,14.30
2017-05-17T00:15:11.616Z,14.30
2017-05-17T00:17:42.121Z,14.40
2017-05-17T00:20:14.771Z,14.50
2017-05-17T00:22:46.236Z,14.50
2017-05-17T00:25:17.780Z,14.30
2017-05-17T00:27:49.255Z,14.30
2017-05-17T00:30:20.791Z,14.00
2017-05-17T00:32:52.687Z,13.60
2017-05-17T00:35:34.208Z,13.60
2017-05-17T00:38:25.185Z,13.70
2017-05-17T00:41:12.671Z,13.80
2017-05-17T00:44:00.167Z,13.90
2017-05-17T00:46:47.524Z,14.00
2017-05-17T00:49:40.932Z,14.10
2017-05-17T00:52:17.296Z,14.20
2017-05-17T00:54:48.840Z,14.20
2017-05-17T00:57:18.371Z,14.00
2017-05-17T00:59:49.679Z,14.00
2017-05-17T01:02:20.179Z,14.00
2017-05-17T01:04:53.072Z,13.80
2017-05-17T01:07:22.603Z,13.60
2017-05-17T01:09:52.215Z,13.30
2017-05-17T01:12:21.744Z,13.30
2017-05-17T01:14:53.064Z,13.50
2017-05-17T01:17:27.023Z,13.60
2017-05-17T01:19:57.559Z,13.70
2017-05-17T01:22:28.075Z,13.80
2017-05-17T01:24:57.643Z,13.80
2017-05-17T01:27:27.191Z,13.80
2017-05-17T01:29:57.751Z,13.60
2017-05-17T01:32:28.255Z,13.40
2017-05-17T01:35:05.718Z,13.30
2017-05-17T01:37:39.754Z,13.10
2017-05-17T01:40:15.411Z,13.20
2017-05-17T01:42:48.080Z,13.10
2017-05-17T01:45:20.899Z,13.00
2017-05-17T01:47:50.435Z,12.90
2017-05-17T01:50:26.018Z,12.70
2017-05-17T01:52:56.542Z,12.50
2017-05-17T01:55:32.359Z,12.50
2017-05-17T01:58:01.899Z,12.50
2017-05-17T02:00:32.458Z,12.40
2017-05-17T02:03:02.963Z,12.50
2017-05-17T02:05:35.664Z,12.50
2017-05-17T02:08:05.191Z,12.50
2017-05-17T02:10:34.786Z,12.30
2017-05-17T02:13:06.299Z,12.40
2017-05-17T02:15:37.758Z,12.40
2017-05-17T02:18:08.282Z,12.30
2017-05-17T02:20:38.747Z,12.40
2017-05-17T02:23:08.282Z,12.40
2017-05-17T02:25:38.579Z,12.30
2017-05-17T02:28:12.642Z,12.30
2017-05-17T02:30:42.201Z,12.40
2017-05-17T02:33:13.694Z,12.60
2017-05-17T02:36:01.386Z,12.60
2017-05-17T02:38:37.350Z,12.80
2017-05-17T02:41:06.950Z,12.90
2017-05-17T02:43:36.506Z,12.80
2017-05-17T02:46:18.545Z,12.70
2017-05-17T02:48:49.014Z,12.70
2017-05-17T02:51:20.486Z,12.60
2017-05-17T02:54:01.206Z,12.70
2017-05-17T02:56:30.770Z,12.70
2017-05-17T02:59:00.310Z,12.70
2017-05-17T03:01:35.801Z,12.80
2017-05-17T03:04:10.526Z,12.90
2017-05-17T03:06:56.790Z,13.00
2017-05-17T03:09:27.063Z,12.80
2017-05-17T03:12:06.686Z,12.80
2017-05-17T03:14:36.218Z,12.90
2017-05-17T03:17:05.770Z,13.10
2017-05-17T03:19:36.037Z,13.10
2017-05-17T03:22:05.602Z,13.10
2017-05-17T03:24:35.869Z,13.20
2017-05-17T03:27:05.541Z,13.10
2017-05-17T03:29:35.205Z,13.10
2017-05-17T03:32:04.721Z,13.30
2017-05-17T03:34:34.273Z,13.20
2017-05-17T03:37:03.821Z,13.20
2017-05-17T03:39:33.390Z,13.20
2017-05-17T03:42:02.925Z,13.20
2017-05-17T03:44:32.489Z,13.30
2017-05-17T03:47:02.044Z,13.40
2017-05-17T03:49:31.597Z,13.50
2017-05-17T03:52:01.157Z,13.40
2017-05-17T03:54:30.694Z,13.40
2017-05-17T03:57:00.982Z,13.30
2017-05-17T03:59:30.522Z,13.30
2017-05-17T04:02:00.817Z,13.20
2017-05-17T04:04:30.353Z,13.20
2017-05-17T04:07:00.317Z,13.30
2017-05-17T04:09:29.937Z,13.20
2017-05-17T04:11:59.462Z,13.30
2017-05-17T04:14:29.732Z,13.20
2017-05-17T04:16:59.306Z,13.10
2017-05-17T04:19:29.577Z,13.20
2017-05-17T04:22:00.097Z,13.30
2017-05-17T04:24:29.625Z,13.50
2017-05-17T04:26:59.167Z,13.50
2017-05-17T04:29:29.449Z,13.30
2017-05-17T04:31:59.002Z,13.40
2017-05-17T04:34:28.620Z,13.40
2017-05-17T04:36:58.208Z,13.50
2017-05-17T04:39:27.730Z,13.40
2017-05-17T04:41:57.265Z,13.50
2017-05-17T04:44:26.814Z,13.40
2017-05-17T04:46:57.085Z,13.40
2017-05-17T04:49:26.624Z,13.60
2017-05-17T04:51:56.193Z,13.70
2017-05-17T04:54:25.732Z,13.80
2017-05-17T04:56:55.292Z,13.90
2017-05-17T04:59:24.837Z,14.00
2017-05-17T05:01:54.369Z,14.10
2017-05-17T05:04:24.665Z,14.20
2017-05-17T05:06:54.205Z,14.40
2017-05-17T05:09:24.504Z,14.50
2017-05-17T05:11:54.049Z,14.60
2017-05-17T05:14:23.697Z,14.80
2017-05-17T05:16:53.312Z,15.00
2017-05-17T05:19:22.887Z,15.30
2017-05-17T05:21:52.452Z,15.50
2017-05-17T05:24:22.741Z,15.60
2017-05-17T05:26:52.296Z,15.80
2017-05-17T05:29:22.860Z,15.90
2017-05-17T05:31:52.404Z,16.10
2017-05-17T05:34:26.052Z,16.20
2017-05-17T05:36:56.788Z,16.30
2017-05-17T05:39:29.564Z,16.40
2017-05-17T05:41:59.096Z,16.60
2017-05-17T05:44:29.603Z,16.70
2017-05-17T05:47:00.130Z,16.80
2017-05-17T05:49:29.668Z,16.90
2017-05-17T05:52:00.143Z,16.90
2017-05-17T05:54:30.712Z,17.00
2017-05-17T05:57:01.203Z,17.10
2017-05-17T05:59:32.671Z,17.20
2017-05-17T06:02:02.200Z,17.40
2017-05-17T06:04:32.656Z,17.50
2017-05-17T06:07:02.927Z,17.50
2017-05-17T06:09:33.752Z,17.70
2017-05-17T06:12:03.288Z,17.80
2017-05-17T06:14:32.880Z,17.80
2017-05-17T06:17:03.126Z,18.00
2017-05-17T06:19:32.659Z,18.10
2017-05-17T06:22:02.220Z,18.20
2017-05-17T06:24:31.771Z,18.30
2017-05-17T06:27:02.159Z,18.40
2017-05-17T06:29:31.688Z,18.50
2017-05-17T06:32:02.039Z,18.60
2017-05-17T06:34:32.559Z,18.70
2017-05-17T06:37:02.951Z,18.80
2017-05-17T06:39:32.484Z,18.90
2017-05-17T06:42:03.377Z,18.90
2017-05-17T06:44:32.903Z,19.10
2017-05-17T06:47:02.431Z,19.20
2017-05-17T06:49:32.734Z,19.30
2017-05-17T06:52:02.263Z,19.30
2017-05-17T06:54:32.539Z,19.40
2017-05-17T06:57:02.081Z,19.60
2017-05-17T06:59:31.623Z,19.60
2017-05-17T07:02:01.178Z,19.70
2017-05-17T07:04:30.703Z,19.90
2017-05-17T07:07:00.991Z,20.00
2017-05-17T07:09:30.515Z,19.90
2017-05-17T07:12:00.047Z,19.90
2017-05-17T07:14:30.326Z,19.90
2017-05-17T07:16:59.859Z,20.00
2017-05-17T07:19:30.210Z,20.00
2017-05-17T07:21:59.843Z,20.10
2017-05-17T07:24:29.379Z,20.00
2017-05-17T07:26:58.902Z,20.10
2017-05-17T07:29:29.218Z,20.10
2017-05-17T07:31:59.542Z,20.20
2017-05-17T07:34:29.074Z,20.30
2017-05-17T07:36:58.595Z,20.30
2017-05-17T07:39:28.143Z,20.50
2017-05-17T07:41:57.674Z,20.50
2017-05-17T07:44:27.963Z,20.40
2017-05-17T07:46:57.486Z,20.50
2017-05-17T07:49:27.022Z,20.70
2017-05-17T07:51:56.546Z,20.80
2017-05-17T07:54:26.082Z,20.80
2017-05-17T07:56:55.646Z,21.00
2017-05-17T07:59:25.178Z,21.10
2017-05-17T08:01:54.706Z,20.90
2017-05-17T08:04:24.255Z,21.20
2017-05-17T08:06:53.778Z,21.30
2017-05-17T08:09:23.318Z,21.30
2017-05-17T08:11:52.841Z,21.10
2017-05-17T08:14:22.383Z,21.50
2017-05-17T08:16:51.914Z,21.60
2017-05-17T08:19:21.446Z,21.70
2017-05-17T08:21:50.974Z,21.80
2017-05-17T08:24:21.322Z,21.50
2017-05-17T08:26:50.862Z,22.00
2017-05-17T08:29:20.438Z,22.10
2017-05-17T08:31:49.977Z,22.10
2017-05-17T08:34:19.514Z,22.20
2017-05-17T08:36:49.777Z,22.30
2017-05-17T08:39:19.310Z,22.60
2017-05-17T08:41:48.834Z,22.70
2017-05-17T08:44:18.382Z,22.70
2017-05-17T08:46:47.909Z,22.70
2017-05-17T08:49:17.437Z,22.50
2017-05-17T08:51:47.001Z,22.80
2017-05-17T08:54:16.525Z,22.70
2017-05-17T08:56:46.081Z,22.80
2017-05-17T08:59:15.605Z,22.90
2017-05-17T09:01:45.142Z,22.90
2017-05-17T09:04:14.705Z,23.00
2017-05-17T09:06:44.989Z,22.80
2017-05-17T09:09:14.522Z,22.50
2017-05-17T09:11:44.101Z,22.70
2017-05-17T09:14:13.622Z,22.90
2017-05-17T09:16:44.165Z,22.90
2017-05-17T09:19:14.445Z,23.00
2017-05-17T09:21:43.997Z,23.10
2017-05-17T09:24:14.261Z,23.30
2017-05-17T09:26:43.797Z,23.30
2017-05-17T09:29:13.329Z,23.50
2017-05-17T09:31:43.634Z,23.60
2017-05-17T09:34:13.158Z,23.70
2017-05-17T09:36:43.452Z,23.70
2017-05-17T09:39:13.048Z,23.40
2017-05-17T09:41:42.537Z,23.40
2017-05-17T09:44:12.069Z,23.60
2017-05-17T09:46:41.641Z,23.80
2017-05-17T09:49:11.166Z,23.70
2017-05-17T09:51:40.709Z,23.70
2017-05-17T09:54:12.005Z,23.80
2017-05-17T09:56:41.536Z,23.50
2017-05-17T09:59:11.129Z,23.30
2017-05-17T10:01:40.681Z,23.60
2017-05-17T10:04:10.244Z,23.60
2017-05-17T10:06:39.889Z,23.40
2017-05-17T10:09:10.181Z,23.40
2017-05-17T10:11:39.709Z,23.30
2017-05-17T10:14:09.992Z,23.40
2017-05-17T10:16:39.524Z,23.40
2017-05-17T10:19:09.064Z,23.50
2017-05-17T10:21:38.592Z,23.60
2017-05-17T10:24:08.181Z,23.60
2017-05-17T10:26:37.716Z,23.60
2017-05-17T10:29:07.250Z,23.50
2017-05-17T10:31:36.824Z,23.70
2017-05-17T10:34:06.368Z,23.60
2017-05-17T10:36:35.916Z,23.70
2017-05-17T10:39:05.780Z,23.80
2017-05-17T10:41:35.340Z,23.80
2017-05-17T10:44:05.076Z,23.70
2017-05-17T10:46:34.616Z,23.90
2017-05-17T10:49:05.907Z,24.00
2017-05-17T10:51:35.436Z,23.90
2017-05-17T10:54:05.008Z,24.20
2017-05-17T10:56:34.552Z,24.40
2017-05-17T10:59:05.189Z,24.30
2017-05-17T11:01:34.744Z,24.50
2017-05-17T11:04:04.288Z,24.70
2017-05-17T11:06:33.843Z,24.80
2017-05-17T11:09:03.387Z,24.80
2017-05-17T11:11:32.964Z,24.80
2017-05-17T11:14:02.496Z,24.90
2017-05-17T11:16:32.056Z,24.80
2017-05-17T11:19:02.328Z,24.60
2017-05-17T11:21:31.880Z,24.60
2017-05-17T11:24:01.407Z,24.60
2017-05-17T11:26:30.948Z,24.60
2017-05-17T11:29:00.495Z,24.60
2017-05-17T11:31:30.769Z,24.60
2017-05-17T11:34:00.332Z,24.60
2017-05-17T11:36:29.976Z,25.00
2017-05-17T11:38:59.511Z,25.00
2017-05-17T11:41:29.076Z,25.00
2017-05-17T11:43:58.604Z,24.70
2017-05-17T11:46:28.147Z,24.80
2017-05-17T11:48:58.443Z,24.80
2017-05-17T11:51:27.967Z,24.90
2017-05-17T11:53:57.511Z,24.80
2017-05-17T11:56:28.651Z,24.90
2017-05-17T11:58:59.116Z,24.80
2017-05-17T12:01:28.655Z,24.70
2017-05-17T12:03:58.943Z,24.60
2017-05-17T12:06:28.475Z,24.70
2017-05-17T12:08:58.007Z,24.50
2017-05-17T12:11:27.539Z,24.80
2017-05-17T12:13:57.071Z,25.10
2017-05-17T12:16:26.600Z,24.90
2017-05-17T12:18:57.144Z,24.80
2017-05-17T12:21:26.807Z,25.00
2017-05-17T12:23:56.304Z,24.90
2017-05-17T12:26:25.866Z,24.90
2017-05-17T12:28:55.422Z,24.90
2017-05-17T12:31:24.959Z,25.10
2017-05-17T12:33:55.563Z,25.10
2017-05-17T12:36:25.105Z,25.10
2017-05-17T12:38:55.391Z,25.10
2017-05-17T12:41:24.939Z,25.10
2017-05-17T12:43:54.471Z,25.30
2017-05-17T12:46:24.339Z,25.20
2017-05-17T12:48:54.634Z,25.30
2017-05-17T12:51:24.203Z,25.40
2017-05-17T12:53:53.739Z,25.50
2017-05-17T12:56:23.295Z,25.50
2017-05-17T12:58:53.010Z,25.70
2017-05-17T13:01:22.559Z,25.40
2017-05-17T13:03:52.083Z,25.40
2017-05-17T13:06:21.631Z,25.40
2017-05-17T13:08:51.210Z,25.60
2017-05-17T13:11:22.490Z,25.80
2017-05-17T13:13:52.070Z,25.40
2017-05-17T13:16:22.354Z,25.40
2017-05-17T13:18:51.890Z,25.50
2017-05-17T13:21:22.163Z,25.60
2017-05-17T13:23:51.818Z,25.30
2017-05-17T13:26:22.098Z,25.20
2017-05-17T13:28:51.638Z,25.40
2017-05-17T13:31:21.178Z,25.50
2017-05-17T13:33:50.942Z,25.50
2017-05-17T13:36:20.505Z,25.60
2017-05-17T13:38:50.042Z,25.80
2017-05-17T13:41:19.655Z,25.90
2017-05-17T13:43:49.202Z,26.10
2017-05-17T13:46:18.730Z,26.30
2017-05-17T13:48:48.261Z,26.00
2017-05-17T13:51:17.826Z,25.80
2017-05-17T13:53:47.355Z,25.90
2017-05-17T13:56:16.898Z,25.90
2017-05-17T13:58:46.429Z,25.90
2017-05-17T14:01:16.722Z,26.10
2017-05-17T14:03:46.262Z,26.10
2017-05-17T14:06:15.798Z,26.10
2017-05-17T14:08:45.321Z,25.80
2017-05-17T14:11:14.857Z,25.80
2017-05-17T14:13:44.418Z,25.80
2017-05-17T14:16:13.941Z,25.80
2017-05-17T14:18:43.493Z,25.60
2017-05-17T14:21:13.805Z,25.60
2017-05-17T14:23:43.557Z,25.90
2017-05-17T14:26:13.218Z,26.10
2017-05-17T14:28:42.970Z,25.70
2017-05-17T14:31:12.523Z,25.70
2017-05-17T14:33:42.054Z,25.90
2017-05-17T14:36:11.613Z,25.80
2017-05-17T14:38:41.129Z,25.70
2017-05-17T14:41:10.669Z,25.90
2017-05-17T14:43:40.213Z,26.00
2017-05-17T14:46:09.729Z,25.90
2017-05-17T14:48:39.285Z,25.90
2017-05-17T14:51:08.809Z,25.70
2017-05-17T14:53:38.345Z,25.80
2017-05-17T14:56:08.182Z,25.90
2017-05-17T14:58:37.801Z,26.10
2017-05-17T15:01:08.116Z,26.10
2017-05-17T15:03:37.645Z,25.90
2017-05-17T15:06:07.168Z,26.00
2017-05-17T15:08:36.705Z,25.80
2017-05-17T15:11:06.233Z,25.90
2017-05-17T15:13:35.793Z,25.90
2017-05-17T15:16:05.342Z,25.80
2017-05-17T15:18:34.906Z,25.80
2017-05-17T15:21:04.434Z,25.80
2017-05-17T15:23:33.969Z,25.80
2017-05-17T15:26:04.233Z,25.70
2017-05-17T15:28:33.766Z,25.90
2017-05-17T15:31:03.316Z,25.80
2017-05-17T15:33:33.065Z,25.90
2017-05-17T15:36:02.592Z,25.80
2017-05-17T15:38:32.121Z,25.70
2017-05-17T15:41:02.400Z,25.60
2017-05-17T15:43:31.938Z,25.40
2017-05-17T15:46:02.653Z,25.50
2017-05-17T15:48:32.157Z,25.50
2017-05-17T15:51:01.697Z,25.70
2017-05-17T15:53:31.962Z,25.50
2017-05-17T15:56:01.900Z,25.70
2017-05-17T15:58:31.632Z,25.80
2017-05-17T16:01:02.125Z,25.80
2017-05-17T16:03:31.656Z,25.90
2017-05-17T16:06:01.197Z,25.70
2017-05-17T16:08:30.721Z,25.30
2017-05-17T16:11:00.252Z,25.50
2017-05-17T16:13:29.785Z,25.50
2017-05-17T16:15:59.320Z,25.40
2017-05-17T16:18:28.860Z,25.50
2017-05-17T16:20:58.388Z,25.50
2017-05-17T16:23:27.925Z,25.40
2017-05-17T16:25:58.203Z,25.30
2017-05-17T16:28:27.724Z,25.20
2017-05-17T16:30:57.268Z,25.40
2017-05-17T16:33:26.804Z,25.10
2017-05-17T16:35:56.339Z,25.30
2017-05-17T16:38:25.876Z,25.40
2017-05-17T16:40:55.407Z,25.40
2017-05-17T16:43:24.940Z,25.00
2017-05-17T16:45:54.487Z,24.90
2017-05-17T16:48:24.020Z,25.10
2017-05-17T16:50:53.576Z,25.00
2017-05-17T16:53:23.099Z,25.00
2017-05-17T16:55:52.756Z,24.90
2017-05-17T16:58:22.283Z,24.80
2017-05-17T17:00:51.824Z,24.80
2017-05-17T17:03:21.355Z,24.90
2017-05-17T17:05:50.911Z,24.80
2017-05-17T17:08:20.439Z,24.80
2017-05-17T17:10:49.979Z,24.70
2017-05-17T17:13:19.515Z,24.70
2017-05-17T17:15:49.056Z,24.70
2017-05-17T17:18:18.583Z,24.50
2017-05-17T17:20:48.127Z,24.50
2017-05-17T17:23:17.659Z,24.30
2017-05-17T17:25:48.063Z,24.30
2017-05-17T17:28:17.559Z,24.30
2017-05-17T17:30:47.087Z,24.20
2017-05-17T17:33:17.380Z,24.00
2017-05-17T17:35:46.912Z,24.00
2017-05-17T17:38:16.483Z,23.90
2017-05-17T17:40:46.543Z,24.00
2017-05-17T17:43:16.833Z,23.90
2017-05-17T17:45:46.361Z,23.90
2017-05-17T17:48:15.971Z,23.80
2017-05-17T17:50:46.251Z,23.80
2017-05-17T17:53:15.783Z,23.80
2017-05-17T17:55:45.311Z,23.70
2017-05-17T17:58:15.575Z,23.70
2017-05-17T18:00:45.423Z,23.60
2017-05-17T18:03:14.947Z,23.50
2017-05-17T18:05:45.239Z,23.30
2017-05-17T18:08:14.872Z,23.30
2017-05-17T18:10:45.164Z,23.20
2017-05-17T18:13:14.688Z,23.10
2017-05-17T18:15:44.219Z,22.90
2017-05-17T18:18:14.221Z,22.80
2017-05-17T18:20:43.768Z,22.80
2017-05-17T18:23:13.304Z,22.60
2017-05-17T18:25:42.827Z,22.60
2017-05-17T18:28:12.383Z,22.50
2017-05-17T18:30:41.903Z,22.40
2017-05-17T18:33:11.442Z,22.30
2017-05-17T18:35:41.002Z,22.30
2017-05-17T18:38:10.540Z,22.20
2017-05-17T18:40:40.083Z,22.10
2017-05-17T18:43:11.332Z,22.00
2017-05-17T18:45:40.882Z,22.00
2017-05-17T18:48:10.414Z,21.90
2017-05-17T18:50:39.942Z,21.90
2017-05-17T18:53:10.234Z,21.70
2017-05-17T18:55:39.758Z,21.70
2017-05-17T18:58:10.055Z,21.60
2017-05-17T19:00:39.583Z,21.50
2017-05-17T19:03:09.164Z,21.40
2017-05-17T19:05:38.744Z,21.40
2017-05-17T19:08:09.272Z,21.30
2017-05-17T19:10:38.831Z,21.30
2017-05-17T19:13:08.374Z,21.30
2017-05-17T19:15:37.938Z,21.20
2017-05-17T19:18:07.521Z,21.20
2017-05-17T19:20:37.035Z,21.10
2017-05-17T19:23:07.502Z,21.00
2017-05-17T19:25:37.054Z,21.10
2017-05-17T19:28:06.580Z,21.00
2017-05-17T19:30:36.134Z,20.90
2017-05-17T19:33:05.673Z,20.90
2017-05-17T19:35:35.258Z,20.70
2017-05-17T19:38:04.806Z,20.80
2017-05-17T19:40:34.357Z,20.80
2017-05-17T19:43:03.898Z,20.70
2017-05-17T19:45:33.426Z,20.70
2017-05-17T19:48:02.994Z,20.60
2017-05-17T19:50:33.461Z,20.60
2017-05-17T19:53:03.010Z,20.50
2017-05-17T19:55:32.541Z,20.50
2017-05-17T19:58:02.094Z,20.50
2017-05-17T20:00:33.009Z,20.40
2017-05-17T20:03:02.562Z,20.40
2017-05-17T20:05:32.109Z,20.30
2017-05-17T20:08:01.633Z,20.20
2017-05-17T20:10:31.925Z,20.20
2017-05-17T20:13:02.233Z,20.10
2017-05-17T20:15:32.029Z,20.10
2017-05-17T20:18:01.613Z,20.10
2017-05-17T20:20:31.889Z,20.00
2017-05-17T20:23:01.446Z,20.00
2017-05-17T20:25:30.989Z,20.00
2017-05-17T20:28:00.533Z,20.00
2017-05-17T20:30:30.819Z,19.90
2017-05-17T20:33:00.355Z,20.00
2017-05-17T20:35:29.917Z,19.90
2017-05-17T20:37:59.461Z,19.80
2017-05-17T20:40:28.997Z,19.80
2017-05-17T20:42:58.545Z,19.80
2017-05-17T20:45:28.393Z,19.80
2017-05-17T20:47:58.725Z,19.70
2017-05-17T20:50:29.013Z,19.60
2017-05-17T20:52:58.562Z,19.60
2017-05-17T20:55:28.912Z,19.60
2017-05-17T20:57:58.473Z,19.50
2017-05-17T21:00:28.957Z,19.40
2017-05-17T21:02:58.686Z,19.50
2017-05-17T21:05:28.209Z,19.50
2017-05-17T21:07:57.784Z,19.40
2017-05-17T21:10:27.353Z,19.40
2017-05-17T21:12:56.920Z,19.30
2017-05-17T21:15:26.449Z,19.30
2017-05-17T21:17:56.021Z,19.20
2017-05-17T21:20:25.569Z,19.10
2017-05-17T21:22:56.017Z,19.20
2017-05-17T21:25:28.201Z,19.10
2017-05-17T21:27:58.297Z,19.10
2017-05-17T21:30:27.845Z,19.00
2017-05-17T21:32:57.613Z,19.00
2017-05-17T21:35:27.153Z,18.90
2017-05-17T21:37:57.244Z,18.90
2017-05-17T21:40:28.060Z,18.80
2017-05-17T21:42:57.624Z,18.80
2017-05-17T21:45:27.168Z,18.70
2017-05-17T21:47:56.788Z,18.70
2017-05-17T21:50:27.152Z,18.60
2017-05-17T21:52:56.692Z,18.60
2017-05-17T21:55:26.985Z,18.50
2017-05-17T21:57:56.532Z,18.50
2017-05-17T22:00:26.960Z,18.50
2017-05-17T22:02:56.524Z,18.50
2017-05-17T22:05:26.060Z,18.40
2017-05-17T22:07:56.440Z,18.40
2017-05-17T22:10:26.112Z,18.40
2017-05-17T22:15:44.931Z,18.30
2017-05-17T22:21:22.344Z,18.20
2017-05-17T22:23:52.824Z,18.20
2017-05-17T22:26:23.364Z,18.10
2017-05-17T22:28:52.928Z,18.10
2017-05-17T22:31:22.464Z,18.00
2017-05-17T22:33:52.041Z,18.00
2017-05-17T22:36:21.559Z,18.00
2017-05-17T22:38:51.100Z,18.00
2017-05-17T22:41:20.643Z,18.00
2017-05-17T22:43:50.252Z,18.10
2017-05-17T22:46:20.604Z,18.00
2017-05-17T22:48:51.143Z,18.00
2017-05-17T22:51:20.795Z,17.90
2017-05-17T22:53:50.295Z,17.90
2017-05-17T22:56:19.880Z,17.90
2017-05-17T22:58:49.392Z,17.90
2017-05-17T23:01:18.967Z,17.90
2017-05-17T23:03:48.511Z,17.80
2017-05-17T23:06:18.059Z,17.70
2017-05-17T23:08:48.376Z,17.60
2017-05-17T23:11:18.654Z,17.60
2017-05-17T23:13:48.219Z,17.50
2017-05-17T23:16:19.475Z,17.40
2017-05-17T23:18:49.030Z,17.50
2017-05-17T23:21:18.554Z,17.50
2017-05-17T23:23:48.100Z,17.50
2017-05-17T23:26:17.630Z,17.60
2017-05-17T23:28:47.168Z,17.50
2017-05-17T23:31:17.047Z,17.50
2017-05-17T23:33:46.587Z,17.50
2017-05-17T23:36:16.135Z,17.40
2017-05-17T23:38:45.699Z,17.40
2017-05-17T23:41:15.250Z,17.30
2017-05-17T23:43:44.792Z,17.20
2017-05-17T23:46:14.319Z,17.10
2017-05-17T23:48:45.659Z,17.00
2017-05-17T23:51:15.211Z,17.10
2017-05-17T23:53:44.774Z,17.10
2017-05-17T23:56:14.306Z,17.00
2017-05-17T23:58:44.858Z,17.00
